Time;durP1;ratioP1;P1;durP2;ratioP2;P2;SDS_P1;SDS_P2;PMS_P1;PMS_P2;Temp;Humidity;BMP_temperature;BMP_pressure;BME280_temperature;BME280_humidity;BME280_pressure;Samples;Min_cycle;Max_cycle;Signal;HPM_P1;HPM_P2
2024/01/24 00:00:07;;;;;;;7.65;4.97;;;;;;;11.17;100.00;100681.22;10294789;28;20057;-65
2024/01/24 00:05:29;;;;;;;7.70;5.43;;;;;;;11.29;100.00;100674.75;10295783;28;20070;-64
2024/01/24 00:10:51;;;;;;;9.68;6.07;;;;;;;11.44;100.00;100674.22;10305008;28;20077;-64
2024/01/24 00:16:13;;;;;;;12.02;6.22;;;;;;;11.54;100.00;100660.88;10310823;28;20042;-65
2024/01/24 00:21:36;;;;;;;11.38;6.40;;;;;;;11.59;100.00;100678.84;10293055;28;20049;-65
2024/01/24 00:26:58;;;;;;;10.65;6.90;;;;;;;11.67;100.00;100640.56;10297518;28;20145;-65
2024/01/24 00:32:20;;;;;;;8.40;6.53;;;;;;;11.65;100.00;100648.38;10275962;28;20057;-64
2024/01/24 00:37:41;;;;;;;11.32;6.93;;;;;;;11.77;100.00;100668.69;10275349;28;20057;-65
2024/01/24 00:43:05;;;;;;;9.48;6.20;;;;;;;11.78;100.00;100656.53;10308506;28;20508;-64
2024/01/24 00:48:26;;;;;;;8.77;5.70;;;;;;;11.83;100.00;100652.06;10295838;28;20050;-65
2024/01/24 00:53:53;;;;;;;6.78;4.97;;;;;;;11.87;100.00;100663.97;10299445;28;20046;-64
2024/01/24 00:59:15;;;;;;;11.32;4.75;;;;;;;12.06;100.00;100655.47;10294773;28;20046;-64
2024/01/24 01:04:37;;;;;;;6.50;4.15;;;;;;;12.04;100.00;100664.19;10294289;28;20126;-64
2024/01/24 01:09:58;;;;;;;6.15;3.63;;;;;;;12.15;100.00;100649.06;10300813;28;20100;-64
2024/01/24 01:15:20;;;;;;;6.10;3.55;;;;;;;12.14;100.00;100642.19;10291268;28;20061;-64
2024/01/24 01:20:41;;;;;;;5.80;2.97;;;;;;;12.17;100.00;100641.22;10307500;28;20054;-64
2024/01/24 01:26:03;;;;;;;3.92;2.63;;;;;;;12.19;100.00;100636.81;10304026;28;20391;-64
2024/01/24 01:31:25;;;;;;;3.47;2.92;;;;;;;12.19;100.00;100645.44;10297816;28;20066;-64
2024/01/24 01:36:46;;;;;;;4.45;2.55;;;;;;;12.21;100.00;100620.28;10304043;28;20054;-64
2024/01/24 01:42:08;;;;;;;4.28;2.38;;;;;;;12.24;100.00;100616.69;10301013;28;20082;-65
2024/01/24 01:47:30;;;;;;;3.75;2.10;;;;;;;12.23;100.00;100600.31;10281934;28;20062;-65
2024/01/24 01:52:52;;;;;;;4.45;2.00;;;;;;;12.30;100.00;100593.13;10299931;28;20113;-64
2024/01/24 01:58:15;;;;;;;2.67;1.60;;;;;;;12.29;100.00;100594.84;10301187;28;20046;-64
2024/01/24 02:03:37;;;;;;;2.92;1.50;;;;;;;12.28;100.00;100581.94;10317016;28;20046;-65
2024/01/24 02:08:59;;;;;;;2.97;1.40;;;;;;;12.37;100.00;100578.97;10295552;28;20081;-65
2024/01/24 02:14:21;;;;;;;1.60;1.20;;;;;;;12.38;100.00;100570.31;10301269;28;20053;-65
2024/01/24 02:19:42;;;;;;;3.20;0.70;;;;;;;12.47;100.00;100562.97;10300631;28;20055;-65
2024/01/24 02:25:04;;;;;;;2.05;0.90;;;;;;;12.50;100.00;100557.66;10298052;28;20050;-65
2024/01/24 02:30:26;;;;;;;1.42;0.70;;;;;;;12.65;100.00;100580.38;10298990;28;20133;-65
2024/01/24 02:35:48;;;;;;;1.40;0.60;;;;;;;12.78;100.00;100607.47;10295639;28;20054;-65
2024/01/24 02:41:13;;;;;;;0.73;0.50;;;;;;;12.88;100.00;100632.16;10300345;28;20066;-66
2024/01/24 02:46:34;;;;;;;2.10;0.50;;;;;;;12.92;100.00;100576.59;10302306;28;20475;-66
2024/01/24 02:52:01;;;;;;;1.23;0.40;;;;;;;12.96;100.00;100585.94;10315543;28;20063;-66
2024/01/24 02:57:23;;;;;;;5.18;0.68;;;;;;;12.92;100.00;100571.41;10296067;28;20126;-66
2024/01/24 03:02:44;;;;;;;3.03;0.60;;;;;;;12.83;100.00;100571.78;10309771;28;20339;-66
2024/01/24 03:08:06;;;;;;;2.35;0.50;;;;;;;12.93;100.00;100578.25;10295622;28;20400;-66
2024/01/24 03:13:28;;;;;;;1.63;0.57;;;;;;;13.02;100.00;100596.06;10304531;28;20380;-66
2024/01/24 03:18:51;;;;;;;2.22;0.75;;;;;;;12.95;100.00;100571.25;10299287;28;20078;-67
2024/01/24 03:24:13;;;;;;;4.47;1.00;;;;;;;12.87;100.00;100565.53;10311623;28;20385;-67
2024/01/24 03:29:35;;;;;;;5.38;1.00;;;;;;;12.93;98.88;100557.47;10296086;28;20178;-67
2024/01/24 03:34:59;;;;;;;5.63;1.00;;;;;;;12.93;96.42;100561.81;10298530;28;20057;-68
2024/01/24 03:40:20;;;;;;;9.40;1.10;;;;;;;12.87;95.24;100588.91;10305146;28;20106;-67
2024/01/24 03:45:42;;;;;;;9.10;1.65;;;;;;;12.84;94.78;100570.88;10299128;28;20045;-67
2024/01/24 03:51:09;;;;;;;8.38;1.52;;;;;;;12.80;93.58;100582.28;10303282;28;20078;-67
2024/01/24 03:56:31;;;;;;;8.75;1.58;;;;;;;12.85;92.98;100603.75;10301161;28;20068;-68
2024/01/24 04:01:53;;;;;;;12.18;1.80;;;;;;;12.79;93.01;100616.13;10296306;28;20050;-67
2024/01/24 04:07:14;;;;;;;10.98;1.92;;;;;;;12.63;94.84;100636.72;10302300;28;20046;-67
2024/01/24 04:12:36;;;;;;;9.63;1.90;;;;;;;12.63;94.63;100625.47;10310476;28;20043;-67
2024/01/24 04:17:58;;;;;;;11.07;1.88;;;;;;;12.65;94.66;100641.81;10306468;28;20077;-68
2024/01/24 04:23:19;;;;;;;11.85;2.05;;;;;;;12.56;94.80;100631.81;10291985;28;20065;-67
2024/01/24 04:28:41;;;;;;;12.55;2.40;;;;;;;12.49;94.59;100636.41;10297854;28;20053;-67
2024/01/24 04:34:03;;;;;;;18.10;2.53;;;;;;;12.40;94.16;100644.56;10293362;28;20051;-67
2024/01/24 04:39:24;;;;;;;19.17;2.60;;;;;;;12.46;94.17;100662.50;10311432;28;20569;-69
2024/01/24 04:44:46;;;;;;;14.38;2.75;;;;;;;12.45;93.79;100653.03;10302873;28;20050;-67
2024/01/24 04:50:09;;;;;;;20.52;3.10;;;;;;;12.39;93.68;100640.31;10318352;28;20534;-68
2024/01/24 04:55:32;;;;;;;13.52;2.72;;;;;;;12.45;92.46;100632.28;10323470;28;20051;-68
2024/01/24 05:00:54;;;;;;;20.95;3.38;;;;;;;12.25;95.50;100658.16;10307115;28;20070;-68
2024/01/24 05:06:16;;;;;;;16.52;2.85;;;;;;;12.08;98.04;100656.25;10298378;28;20068;-67
2024/01/24 05:11:41;;;;;;;19.73;3.20;;;;;;;11.90;100.00;100674.25;10300733;28;20046;-67
2024/01/24 05:17:03;;;;;;;28.33;4.20;;;;;;;11.72;100.00;100735.38;10296538;28;20043;-66
2024/01/24 05:22:25;;;;;;;20.80;3.47;;;;;;;11.60;100.00;100709.03;10286271;28;20134;-66
2024/01/24 05:27:46;;;;;;;24.38;3.40;;;;;;;11.58;100.00;100714.28;10294575;28;20062;-67
2024/01/24 05:33:10;;;;;;;22.67;3.25;;;;;;;11.51;100.00;100717.16;10279003;28;20141;-66
2024/01/24 05:38:33;;;;;;;21.05;3.53;;;;;;;11.50;98.29;100720.66;10297624;28;20050;-67
2024/01/24 05:43:55;;;;;;;23.92;3.72;;;;;;;11.46;98.86;100734.59;10307457;28;20092;-68
2024/01/24 05:49:18;;;;;;;26.58;4.10;;;;;;;11.43;99.31;100725.19;10294648;28;20057;-67
2024/01/24 05:54:40;;;;;;;27.60;4.63;;;;;;;11.46;98.10;100743.22;10308315;28;20049;-67
2024/01/24 06:00:02;;;;;;;24.92;4.13;;;;;;;11.50;96.95;100751.75;10303467;28;20047;-68
2024/01/24 06:05:24;;;;;;;24.10;3.95;;;;;;;11.45;96.85;100748.44;10295577;28;20050;-68
2024/01/24 06:10:45;;;;;;;27.17;4.90;;;;;;;11.41;96.74;100773.63;10309203;28;20042;-67
2024/01/24 06:16:07;;;;;;;25.27;4.15;;;;;;;11.42;97.17;100771.88;10306391;28;20070;-68
2024/01/24 06:21:29;;;;;;;26.02;4.40;;;;;;;11.44;96.59;100776.13;10301181;28;20052;-68
2024/01/24 06:26:50;;;;;;;29.25;5.13;;;;;;;11.41;96.87;100777.97;10289471;28;20074;-68
2024/01/24 06:32:12;;;;;;;33.13;5.15;;;;;;;11.43;94.80;100791.69;10295454;28;20113;-68
2024/01/24 06:37:34;;;;;;;33.53;5.53;;;;;;;11.47;93.79;100798.47;10287328;28;20047;-68
2024/01/24 06:42:56;;;;;;;31.30;4.90;;;;;;;11.55;91.45;100812.03;10295912;28;20046;-68
2024/01/24 06:48:18;;;;;;;31.27;4.60;;;;;;;11.57;89.68;100802.47;10294079;28;20062;-67
2024/01/24 06:53:39;;;;;;;35.58;5.00;;;;;;;11.60;88.47;100804.94;10300545;28;20054;-68
2024/01/24 06:59:02;;;;;;;36.42;5.88;;;;;;;11.66;85.62;100815.13;10301144;28;20100;-67
2024/01/24 07:04:24;;;;;;;36.83;5.40;;;;;;;11.63;85.43;100833.34;10299277;28;20042;-68
2024/01/24 07:09:45;;;;;;;33.80;5.47;;;;;;;11.58;83.98;100855.97;10285384;28;20050;-68
2024/01/24 07:15:07;;;;;;;32.53;5.63;;;;;;;11.54;84.17;100868.19;10293303;28;20042;-67
2024/01/24 07:20:29;;;;;;;32.33;4.88;;;;;;;11.58;84.33;100863.75;10297578;28;20067;-67
2024/01/24 07:25:51;;;;;;;37.03;5.70;;;;;;;11.50;84.27;100852.81;10305589;28;20264;-67
2024/01/24 07:31:12;;;;;;;27.30;5.07;;;;;;;11.49;83.42;100858.88;10295298;28;20055;-67
2024/01/24 07:36:34;;;;;;;38.65;6.40;;;;;;;11.46;84.23;100874.53;10291961;28;20066;-68
2024/01/24 07:41:56;;;;;;;42.13;5.88;;;;;;;11.38;83.73;100886.88;10296906;28;20050;-67
2024/01/24 07:47:19;;;;;;;35.17;5.65;;;;;;;11.39;83.07;100889.41;10303238;28;20245;-67
2024/01/24 07:52:41;;;;;;;36.80;5.13;;;;;;;11.41;81.95;100908.34;10303415;28;20069;-68
2024/01/24 07:58:04;;;;;;;33.40;5.53;;;;;;;11.41;81.28;100902.34;10306775;28;20061;-68
2024/01/24 08:03:26;;;;;;;31.05;4.93;;;;;;;11.41;80.63;100912.69;10308049;28;20142;-68
2024/01/24 08:08:49;;;;;;;39.83;6.10;;;;;;;11.39;80.64;100910.13;10299586;28;20540;-67
2024/01/24 08:14:12;;;;;;;31.10;5.65;;;;;;;11.43;79.02;100926.44;10295593;28;20184;-68
2024/01/24 08:19:34;;;;;;;30.17;6.05;;;;;;;11.43;78.56;100916.06;10291478;28;20054;-68
2024/01/24 08:24:56;;;;;;;38.42;5.82;;;;;;;11.45;79.67;100922.03;10290205;28;20042;-69
2024/01/24 08:30:19;;;;;;;32.13;5.40;;;;;;;11.43;79.74;100931.59;10288143;28;20117;-67
2024/01/24 08:35:41;;;;;;;36.30;5.53;;;;;;;11.41;80.24;100965.34;10288466;28;20124;-68
2024/01/24 08:41:04;;;;;;;36.38;6.07;;;;;;;11.42;80.22;100961.88;10282325;28;20058;-67
2024/01/24 08:46:25;;;;;;;33.13;5.35;;;;;;;11.34;81.35;100950.03;10297360;28;20046;-67
2024/01/24 08:51:47;;;;;;;33.50;5.22;;;;;;;11.45;80.28;100986.81;10299524;28;20054;-68
2024/01/24 08:57:10;;;;;;;35.00;5.53;;;;;;;11.48;80.54;100987.56;10300123;28;20483;-67
2024/01/24 09:02:33;;;;;;;30.67;5.25;;;;;;;11.56;79.99;101026.22;10298280;28;20061;-68
2024/01/24 09:07:55;;;;;;;37.83;5.22;;;;;;;11.55;79.70;101037.50;10294378;28;20039;-67
2024/01/24 09:13:21;;;;;;;30.58;5.13;;;;;;;11.57;78.95;101028.78;10301636;28;20057;-67
2024/01/24 09:18:42;;;;;;;35.72;5.47;;;;;;;11.55;79.41;101001.22;10293172;28;20078;-67
2024/01/24 09:24:04;;;;;;;37.20;5.80;;;;;;;11.55;79.64;100998.63;10290356;28;20329;-67
2024/01/24 09:29:26;;;;;;;38.40;5.40;;;;;;;11.51;79.35;101007.38;10295208;28;20124;-67
2024/01/24 09:34:48;;;;;;;40.83;5.97;;;;;;;11.55;78.80;101025.38;10293024;28;20054;-68
2024/01/24 09:40:14;;;;;;;32.90;5.38;;;;;;;11.48;79.45;101033.41;10299703;28;20074;-67
2024/01/24 09:45:40;;;;;;;32.78;5.82;;;;;;;11.48;78.94;101049.75;10309876;28;20039;-68
2024/01/24 09:51:02;;;;;;;31.30;5.17;;;;;;;11.54;78.50;101064.28;10299566;28;20050;-67
2024/01/24 09:56:25;;;;;;;31.92;6.03;;;;;;;11.53;78.88;101031.50;10302543;28;20038;-67
2024/01/24 10:01:49;;;;;;;38.92;5.60;;;;;;;11.49;79.29;101092.94;10314261;28;20057;-67
2024/01/24 10:07:12;;;;;;;38.60;5.45;;;;;;;11.44;78.44;101078.41;10307116;28;20507;-67
2024/01/24 10:12:34;;;;;;;37.15;6.20;;;;;;;11.47;78.76;101118.06;10289652;28;20064;-67
2024/01/24 10:17:56;;;;;;;35.33;5.13;;;;;;;11.47;79.52;101093.88;10298548;28;20065;-67
2024/01/24 10:23:18;;;;;;;39.47;6.10;;;;;;;11.51;78.64;101100.66;10297063;28;20120;-67
2024/01/24 10:28:41;;;;;;;34.38;5.80;;;;;;;11.46;79.56;101082.69;10315001;28;20622;-67
2024/01/24 10:34:04;;;;;;;42.47;5.95;;;;;;;11.48;78.23;101119.72;10301748;28;20097;-68
2024/01/24 10:39:30;;;;;;;37.47;5.53;;;;;;;11.41;78.04;101101.84;10302154;28;20085;-68
2024/01/24 10:44:53;;;;;;;37.83;5.37;;;;;;;11.47;78.32;101119.78;10293173;28;20050;-67
2024/01/24 10:50:16;;;;;;;26.85;4.93;;;;;;;11.46;78.11;101108.59;10310087;28;20058;-67
2024/01/24 10:55:38;;;;;;;34.00;5.68;;;;;;;11.43;77.68;101129.38;10296910;28;20475;-68
2024/01/24 11:01:01;;;;;;;36.33;5.28;;;;;;;11.43;77.26;101141.50;10296602;28;20054;-68
2024/01/24 11:06:27;;;;;;;30.33;5.07;;;;;;;11.49;77.65;101134.41;10282824;28;20046;-67
2024/01/24 11:11:51;;;;;;;30.23;4.75;;;;;;;11.47;76.73;101141.38;10299745;28;20054;-66
2024/01/24 11:17:13;;;;;;;37.13;5.57;;;;;;;11.55;77.18;101180.03;10312505;28;20487;-67
2024/01/24 11:22:35;;;;;;;32.47;5.18;;;;;;;11.51;77.65;101179.28;10296936;28;20535;-68
2024/01/24 11:27:57;;;;;;;36.88;5.57;;;;;;;11.49;76.67;101186.22;10292026;28;20105;-68
2024/01/24 11:33:19;;;;;;;33.25;5.05;;;;;;;11.53;76.71;101176.63;10302004;28;20453;-69
2024/01/24 11:38:42;;;;;;;30.42;5.28;;;;;;;11.58;76.05;101224.00;10305900;28;20070;-69
2024/01/24 11:44:11;;;;;;;29.73;5.05;;;;;;;11.55;76.33;101205.94;10315616;28;20057;-68
2024/01/24 11:49:33;;;;;;;26.20;4.93;;;;;;;11.55;76.61;101206.81;10292867;28;20038;-68
2024/01/24 11:54:55;;;;;;;29.02;5.00;;;;;;;11.48;76.85;101235.53;10300622;28;20169;-68
2024/01/24 12:00:17;;;;;;;20.80;4.57;;;;;;;11.51;76.71;101261.34;10308177;28;20050;-68
2024/01/24 12:05:39;;;;;;;32.25;4.90;;;;;;;11.48;77.33;101256.25;10298495;28;20054;-68
2024/01/24 12:11:01;;;;;;;28.88;4.55;;;;;;;11.46;76.67;101289.13;10306056;28;20051;-67
2024/01/24 12:16:25;;;;;;;27.67;5.00;;;;;;;11.45;76.91;101283.09;10303778;28;20049;-67
2024/01/24 12:21:47;;;;;;;25.63;4.88;;;;;;;11.43;76.50;101278.81;10288601;28;20050;-68
2024/01/24 12:27:09;;;;;;;28.63;5.20;;;;;;;11.48;76.48;101308.09;10294964;28;20050;-68
2024/01/24 12:32:32;;;;;;;32.20;4.88;;;;;;;11.40;77.03;101331.59;10290644;28;20121;-68
2024/01/24 12:38:02;;;;;;;30.42;4.88;;;;;;;11.40;77.32;101344.56;10294571;28;20149;-67
2024/01/24 12:43:25;;;;;;;34.20;4.80;;;;;;;11.45;77.15;101340.09;10298541;28;20074;-67
2024/01/24 12:48:48;;;;;;;23.80;4.65;;;;;;;11.43;76.85;101352.25;10286508;28;20054;-67
2024/01/24 12:54:10;;;;;;;35.53;4.78;;;;;;;11.40;77.22;101369.59;10295523;28;20041;-68
2024/01/24 12:59:32;;;;;;;32.35;5.15;;;;;;;11.31;77.79;101370.69;10294176;28;20240;-68
2024/01/24 13:04:54;;;;;;;36.60;5.10;;;;;;;11.34;77.71;101374.94;10300740;28;20109;-68
2024/01/24 13:10:16;;;;;;;32.10;4.65;;;;;;;11.29;77.41;101387.16;10301880;28;20053;-68
2024/01/24 13:15:38;;;;;;;28.92;5.13;;;;;;;11.32;77.50;101400.88;10294942;28;20051;-69
2024/01/24 13:21:01;;;;;;;32.70;5.78;;;;;;;11.36;77.37;101412.03;10300652;28;20093;-67
2024/01/24 13:26:24;;;;;;;36.35;5.60;;;;;;;11.35;76.95;101420.69;10302450;28;20581;-68
2024/01/24 13:31:47;;;;;;;34.10;5.25;;;;;;;11.37;77.23;101419.78;10300876;28;20094;-68
2024/01/24 13:37:08;;;;;;;35.10;4.80;;;;;;;11.37;76.87;101462.97;10300347;28;20061;-69
2024/01/24 13:42:31;;;;;;;37.38;5.80;;;;;;;11.42;76.39;101468.88;10300403;28;20046;-68
2024/01/24 13:47:53;;;;;;;41.47;5.10;;;;;;;11.37;76.52;101469.00;10298884;28;20050;-68
2024/01/24 13:53:15;;;;;;;29.10;5.07;;;;;;;11.37;76.54;101502.69;10298041;28;20203;-69
2024/01/24 13:58:37;;;;;;;32.67;4.97;;;;;;;11.34;77.26;101532.97;10293713;28;20494;-68
2024/01/24 14:04:02;;;;;;;29.70;4.93;;;;;;;11.28;77.14;101512.41;10280081;28;20376;-68
2024/01/24 14:09:25;;;;;;;29.10;5.15;;;;;;;11.30;76.79;101521.00;10298783;28;20077;-67
2024/01/24 14:14:47;;;;;;;39.72;5.65;;;;;;;11.24;77.18;101541.84;10292013;28;20051;-66
2024/01/24 14:20:11;;;;;;;32.75;5.40;;;;;;;11.21;77.42;101549.69;10295914;28;20058;-67
2024/01/24 14:25:33;;;;;;;34.47;5.53;;;;;;;11.23;77.70;101572.06;10298596;28;20042;-67
2024/01/24 14:30:54;;;;;;;37.78;5.70;;;;;;;11.21;77.51;101593.75;10299217;28;20592;-68
2024/01/24 14:36:16;;;;;;;37.58;5.35;;;;;;;11.11;78.03;101604.25;10295386;28;20061;-68
2024/01/24 14:41:38;;;;;;;33.90;5.30;;;;;;;11.09;78.46;101606.03;10298439;28;20408;-67
2024/01/24 14:47:00;;;;;;;41.80;6.95;;;;;;;11.04;78.71;101627.75;10295594;28;20117;-67
2024/01/24 14:52:22;;;;;;;32.63;5.28;;;;;;;10.92;79.33;101640.91;10297047;28;20061;-67
2024/01/24 14:57:44;;;;;;;34.30;6.00;;;;;;;10.88;79.63;101672.91;10290917;28;20045;-67
2024/01/24 15:03:06;;;;;;;38.22;6.07;;;;;;;10.78;80.38;101656.69;10298868;28;20058;-67
2024/01/24 15:08:28;;;;;;;32.13;5.43;;;;;;;10.79;80.69;101689.47;10298623;28;20054;-68
2024/01/24 15:13:50;;;;;;;36.83;6.38;;;;;;;10.75;80.82;101676.59;10304090;28;20105;-65
2024/01/24 15:19:12;;;;;;;38.35;5.63;;;;;;;10.73;81.02;101705.09;10298057;28;20164;-66
2024/01/24 15:24:34;;;;;;;36.45;6.50;;;;;;;10.66;81.24;101698.31;10295823;28;20058;-67
2024/01/24 15:29:58;;;;;;;43.88;6.35;;;;;;;10.61;81.25;101730.31;10296595;28;20444;-66
2024/01/24 15:35:20;;;;;;;37.65;6.28;;;;;;;10.57;81.21;101744.19;10315352;28;20113;-67
2024/01/24 15:40:42;;;;;;;43.88;6.65;;;;;;;10.53;81.74;101742.53;10297432;28;25027;-67
2024/01/24 15:46:06;;;;;;;36.03;6.05;;;;;;;10.47;82.23;101742.63;10298081;28;20189;-67
2024/01/24 15:51:29;;;;;;;43.75;7.00;;;;;;;10.49;81.72;101740.88;10293187;28;20050;-67
2024/01/24 15:56:51;;;;;;;39.20;6.50;;;;;;;10.50;81.89;101779.66;10294890;28;20068;-67
2024/01/24 16:02:13;;;;;;;38.60;5.95;;;;;;;10.49;81.46;101782.28;10298491;28;20673;-67
2024/01/24 16:07:35;;;;;;;35.53;6.10;;;;;;;10.39;82.23;101794.47;10302760;28;20042;-68
2024/01/24 16:12:57;;;;;;;41.40;6.43;;;;;;;10.38;82.42;101810.03;10306784;28;20086;-68
2024/01/24 16:18:19;;;;;;;45.15;6.45;;;;;;;10.35;82.27;101815.22;10301137;28;20046;-68
2024/01/24 16:23:41;;;;;;;54.83;7.63;;;;;;;10.32;82.22;101818.72;10297168;28;20511;-68
2024/01/24 16:29:03;;;;;;;40.97;5.97;;;;;;;10.18;82.79;101837.88;10305486;28;20236;-67
2024/01/24 16:34:25;;;;;;;40.95;6.28;;;;;;;10.12;83.20;101843.97;10297596;28;20055;-68
2024/01/24 16:39:46;;;;;;;39.03;5.90;;;;;;;10.09;83.20;101842.28;10296195;28;20066;-68
2024/01/24 16:45:09;;;;;;;42.45;6.18;;;;;;;10.09;82.68;101864.69;10320001;28;20069;-68
2024/01/24 16:50:30;;;;;;;39.90;5.97;;;;;;;10.13;82.84;101887.91;10301133;28;20582;-68
2024/01/24 16:55:52;;;;;;;35.30;5.47;;;;;;;10.13;83.15;101875.88;10293484;28;20061;-68
2024/01/24 17:01:14;;;;;;;42.50;6.32;;;;;;;10.08;82.73;101889.66;10288342;28;20055;-66
2024/01/24 17:06:36;;;;;;;42.63;6.03;;;;;;;10.04;83.24;101893.16;10295460;28;20510;-67
2024/01/24 17:12:01;;;;;;;44.65;6.40;;;;;;;9.98;83.04;101900.13;10301116;28;20661;-66
2024/01/24 17:17:22;;;;;;;42.63;6.18;;;;;;;10.02;83.10;101930.22;10299281;28;20042;-67
2024/01/24 17:22:44;;;;;;;41.00;5.82;;;;;;;9.98;83.17;101924.25;10285042;28;20055;-67
2024/01/24 17:28:05;;;;;;;42.22;6.75;;;;;;;9.95;83.29;101933.75;10297306;28;20198;-67
2024/01/24 17:33:27;;;;;;;35.17;5.70;;;;;;;9.97;82.99;101942.34;10295991;28;20050;-66
2024/01/24 17:38:48;;;;;;;36.90;6.35;;;;;;;9.92;83.76;101938.97;10288342;28;20533;-67
2024/01/24 17:44:11;;;;;;;36.17;5.57;;;;;;;9.89;83.62;101959.66;10288653;28;20065;-66
2024/01/24 17:49:33;;;;;;;34.40;6.38;;;;;;;9.85;83.83;101958.00;10289983;28;20061;-66
2024/01/24 17:54:59;;;;;;;35.92;5.82;;;;;;;9.81;83.84;101988.19;10293635;28;20050;-67
2024/01/24 18:00:22;;;;;;;39.63;5.78;;;;;;;9.74;83.82;101983.06;10293049;28;20051;-67
2024/01/24 18:05:43;;;;;;;38.67;6.35;;;;;;;9.71;84.49;101985.66;10311066;28;20042;-66
2024/01/24 18:11:05;;;;;;;38.45;6.13;;;;;;;9.69;84.14;101997.75;10295788;28;20690;-66
2024/01/24 18:16:28;;;;;;;39.42;6.18;;;;;;;9.64;84.36;101996.91;10290210;28;20054;-66
2024/01/24 18:21:50;;;;;;;35.85;6.18;;;;;;;9.66;84.42;102008.09;10305524;28;20052;-66
2024/01/24 18:27:12;;;;;;;35.67;5.03;;;;;;;9.65;84.17;102012.41;10288091;28;20046;-66
2024/01/24 18:32:34;;;;;;;36.75;5.28;;;;;;;9.58;84.16;102010.75;10297791;28;20061;-66
2024/01/24 18:37:56;;;;;;;35.60;6.30;;;;;;;9.50;84.54;102019.44;10295843;28;20050;-66
2024/01/24 18:43:17;;;;;;;42.25;6.30;;;;;;;9.50;84.59;102027.19;10291669;28;20186;-66
2024/01/24 18:48:39;;;;;;;41.17;6.32;;;;;;;9.45;84.44;102034.09;10302221;28;20065;-66
2024/01/24 18:54:02;;;;;;;35.65;5.15;;;;;;;9.41;84.54;102027.22;10298238;28;20050;-66
2024/01/24 18:59:24;;;;;;;28.92;5.10;;;;;;;9.40;84.55;102035.84;10300914;28;20101;-66
2024/01/24 19:04:46;;;;;;;33.45;6.22;;;;;;;9.39;84.74;102044.47;10309530;28;20050;-66
2024/01/24 19:10:08;;;;;;;33.55;5.75;;;;;;;9.31;84.98;102057.41;10297452;28;20137;-66
2024/01/24 19:15:31;;;;;;;36.22;5.70;;;;;;;9.25;85.45;102066.94;10299450;28;20454;-66
2024/01/24 19:20:54;;;;;;;33.00;6.55;;;;;;;9.19;86.03;102066.94;10301839;28;20054;-66
2024/01/24 19:26:15;;;;;;;43.22;6.55;;;;;;;9.16;86.14;102070.38;10294575;28;20186;-66
2024/01/24 19:31:38;;;;;;;41.30;5.70;;;;;;;8.99;86.83;102079.94;10289930;28;20054;-66
2024/01/24 19:37:00;;;;;;;38.83;5.70;;;;;;;9.08;86.70;102090.25;10290320;28;20086;-66
2024/01/24 19:42:22;;;;;;;34.42;5.97;;;;;;;9.01;87.16;102073.91;10271238;28;20066;-66
2024/01/24 19:47:45;;;;;;;38.45;6.22;;;;;;;8.99;87.12;102101.44;10290004;28;20046;-66
2024/01/24 19:53:07;;;;;;;33.63;5.45;;;;;;;8.99;87.00;102100.59;10299696;28;20137;-66
2024/01/24 19:58:33;;;;;;;35.88;5.57;;;;;;;8.97;87.35;102103.16;10291036;28;20046;-66
2024/01/24 20:03:54;;;;;;;34.70;6.32;;;;;;;8.94;87.36;102108.34;10297135;28;20070;-66
2024/01/24 20:09:16;;;;;;;34.97;5.53;;;;;;;8.89;87.53;102109.22;10295517;28;20053;-66
2024/01/24 20:14:38;;;;;;;40.97;5.75;;;;;;;8.93;87.69;102129.88;10298552;28;20157;-66
2024/01/24 20:19:59;;;;;;;37.40;5.97;;;;;;;8.85;87.97;102123.84;10296719;28;20081;-67
2024/01/24 20:25:21;;;;;;;34.63;6.05;;;;;;;8.86;87.47;102115.22;10303217;28;20046;-68
2024/01/24 20:30:44;;;;;;;35.92;5.80;;;;;;;8.81;87.98;102109.22;10310725;28;20624;-67
2024/01/24 20:36:08;;;;;;;35.47;6.13;;;;;;;8.81;87.98;102126.44;10297763;28;20046;-67
2024/01/24 20:41:30;;;;;;;37.75;5.57;;;;;;;8.79;87.69;102128.19;10310157;28;20050;-66
2024/01/24 20:46:52;;;;;;;42.40;5.88;;;;;;;8.76;87.72;102139.34;10289693;28;20481;-66
2024/01/24 20:52:14;;;;;;;38.05;5.45;;;;;;;8.74;87.91;102145.38;10287428;28;20062;-67
2024/01/24 20:57:36;;;;;;;34.97;5.40;;;;;;;8.71;87.97;102153.13;10302177;28;20074;-67
2024/01/24 21:02:58;;;;;;;49.33;6.28;;;;;;;8.68;87.73;102150.56;10286828;28;20088;-67
2024/01/24 21:08:20;;;;;;;41.28;5.50;;;;;;;8.63;88.36;102147.09;10290124;28;20161;-67
2024/01/24 21:13:42;;;;;;;40.03;6.60;;;;;;;8.68;87.92;102151.41;10288567;28;20062;-68
2024/01/24 21:19:04;;;;;;;34.10;5.80;;;;;;;8.70;87.59;102154.84;10282636;28;20065;-67
2024/01/24 21:24:26;;;;;;;41.58;5.97;;;;;;;8.62;87.70;102166.03;10296500;28;20066;-67
2024/01/24 21:29:47;;;;;;;39.67;5.80;;;;;;;8.57;87.74;102162.59;10295845;28;20562;-68
2024/01/24 21:35:11;;;;;;;37.58;5.25;;;;;;;8.63;87.74;102163.44;10296078;28;20753;-68
2024/01/24 21:40:32;;;;;;;40.90;6.35;;;;;;;8.62;87.45;102181.50;10296642;28;20074;-68
2024/01/24 21:45:54;;;;;;;29.52;5.25;;;;;;;8.65;87.21;102172.03;10288617;28;20435;-67
2024/01/24 21:51:16;;;;;;;36.35;4.97;;;;;;;8.55;87.71;102185.78;10293718;28;20740;-67
2024/01/24 21:56:37;;;;;;;35.92;5.00;;;;;;;8.57;87.61;102181.50;10315365;28;20542;-67
2024/01/24 22:01:59;;;;;;;38.25;5.20;;;;;;;8.59;87.68;102189.25;10299831;28;20054;-67
2024/01/24 22:07:21;;;;;;;36.28;5.10;;;;;;;8.59;87.48;102192.69;10297823;28;20436;-68
2024/01/24 22:12:44;;;;;;;42.88;5.72;;;;;;;8.61;87.30;102197.84;10295914;28;20046;-67
2024/01/24 22:18:07;;;;;;;32.63;5.07;;;;;;;8.57;87.27;102209.03;10308866;28;20073;-67
2024/01/24 22:23:28;;;;;;;46.13;5.78;;;;;;;8.57;87.55;102214.19;10315342;28;20054;-68
2024/01/24 22:28:50;;;;;;;38.30;5.40;;;;;;;8.59;87.51;102210.75;10286794;28;20156;-68
2024/01/24 22:34:12;;;;;;;37.50;5.47;;;;;;;8.58;87.56;102211.63;10289375;28;20054;-68
2024/01/24 22:39:34;;;;;;;37.35;5.72;;;;;;;8.59;87.55;102212.47;10307939;28;20065;-68
2024/01/24 22:44:56;;;;;;;39.55;5.97;;;;;;;8.58;88.05;102218.47;10296977;28;20160;-68
2024/01/24 22:50:17;;;;;;;40.90;5.53;;;;;;;8.58;88.16;102221.94;10299623;28;20050;-68
2024/01/24 22:55:41;;;;;;;41.70;5.43;;;;;;;8.55;88.06;102232.22;10295952;28;20153;-68
2024/01/24 23:01:03;;;;;;;34.63;5.45;;;;;;;8.63;88.07;102238.28;10293918;28;20110;-68
2024/01/24 23:06:25;;;;;;;37.83;5.03;;;;;;;8.59;88.26;102231.38;10287404;28;20081;-67
2024/01/24 23:11:47;;;;;;;37.38;5.20;;;;;;;8.63;88.48;102238.28;10307877;28;20049;-67
2024/01/24 23:17:09;;;;;;;33.22;4.80;;;;;;;8.67;87.87;102247.75;10290778;28;20061;-67
2024/01/24 23:22:30;;;;;;;31.48;4.50;;;;;;;8.62;88.64;102254.63;10291679;28;20061;-67
2024/01/24 23:27:52;;;;;;;29.50;4.78;;;;;;;8.57;88.50;102266.63;10297332;28;20077;-68
2024/01/24 23:33:14;;;;;;;39.80;5.20;;;;;;;8.55;88.94;102270.94;10302175;28;20494;-68
2024/01/24 23:38:36;;;;;;;41.83;5.57;;;;;;;8.54;89.05;102281.25;10296102;28;20074;-68
2024/01/24 23:43:58;;;;;;;38.83;5.03;;;;;;;8.49;88.96;102294.16;10310845;28;20077;-68
2024/01/24 23:49:20;;;;;;;38.03;5.45;;;;;;;8.51;88.70;102292.44;10311595;28;20465;-68
2024/01/24 23:54:42;;;;;;;36.92;5.47;;;;;;;8.45;89.49;102296.72;10301867;28;20050;-67
